sensor_id;sensor_type;location;lat;lon;timestamp;P1;durP1;ratioP1;P2;durP2;ratioP2
13731;SDS011;6937;56.096;12.664;2023-02-15T00:00:25;22.90;;;20.52;;
13731;SDS011;6937;56.096;12.664;2023-02-15T00:02:50;24.45;;;19.55;;
13731;SDS011;6937;56.096;12.664;2023-02-15T00:05:16;24.25;;;20.38;;
13731;SDS011;6937;56.096;12.664;2023-02-15T00:07:41;23.35;;;21.00;;
13731;SDS011;6937;56.096;12.664;2023-02-15T00:10:07;22.63;;;20.08;;
13731;SDS011;6937;56.096;12.664;2023-02-15T00:12:32;23.33;;;19.58;;
13731;SDS011;6937;56.096;12.664;2023-02-15T00:14:58;23.63;;;19.50;;
13731;SDS011;6937;56.096;12.664;2023-02-15T00:17:23;25.13;;;20.75;;
13731;SDS011;6937;56.096;12.664;2023-02-15T00:19:48;22.77;;;20.20;;
13731;SDS011;6937;56.096;12.664;2023-02-15T00:22:14;21.98;;;18.58;;
13731;SDS011;6937;56.096;12.664;2023-02-15T00:24:40;24.98;;;20.42;;
13731;SDS011;6937;56.096;12.664;2023-02-15T00:27:05;25.85;;;22.55;;
13731;SDS011;6937;56.096;12.664;2023-02-15T00:29:31;22.77;;;20.38;;
13731;SDS011;6937;56.096;12.664;2023-02-15T00:31:56;26.55;;;20.25;;
13731;SDS011;6937;56.096;12.664;2023-02-15T00:34:23;22.33;;;18.88;;
13731;SDS011;6937;56.096;12.664;2023-02-15T00:36:49;23.30;;;20.15;;
13731;SDS011;6937;56.096;12.664;2023-02-15T00:39:15;22.40;;;19.75;;
13731;SDS011;6937;56.096;12.664;2023-02-15T00:41:41;26.48;;;20.90;;
13731;SDS011;6937;56.096;12.664;2023-02-15T00:44:07;24.05;;;21.42;;
13731;SDS011;6937;56.096;12.664;2023-02-15T00:46:33;23.45;;;20.08;;
13731;SDS011;6937;56.096;12.664;2023-02-15T00:48:58;26.08;;;20.40;;
13731;SDS011;6937;56.096;12.664;2023-02-15T00:51:24;24.48;;;20.85;;
13731;SDS011;6937;56.096;12.664;2023-02-15T00:53:50;22.93;;;19.67;;
13731;SDS011;6937;56.096;12.664;2023-02-15T00:56:16;26.23;;;21.30;;
13731;SDS011;6937;56.096;12.664;2023-02-15T00:58:41;23.42;;;20.83;;
13731;SDS011;6937;56.096;12.664;2023-02-15T01:01:08;25.20;;;21.00;;
13731;SDS011;6937;56.096;12.664;2023-02-15T01:03:37;25.80;;;21.10;;
13731;SDS011;6937;56.096;12.664;2023-02-15T01:06:03;25.17;;;21.52;;
13731;SDS011;6937;56.096;12.664;2023-02-15T01:08:29;23.30;;;20.83;;
13731;SDS011;6937;56.096;12.664;2023-02-15T01:10:54;23.38;;;20.88;;
13731;SDS011;6937;56.096;12.664;2023-02-15T01:13:20;22.98;;;20.42;;
13731;SDS011;6937;56.096;12.664;2023-02-15T01:15:54;23.88;;;21.27;;
13731;SDS011;6937;56.096;12.664;2023-02-15T01:18:20;24.92;;;20.98;;
13731;SDS011;6937;56.096;12.664;2023-02-15T01:20:46;29.85;;;23.73;;
13731;SDS011;6937;56.096;12.664;2023-02-15T01:23:12;29.60;;;22.05;;
13731;SDS011;6937;56.096;12.664;2023-02-15T01:25:38;29.55;;;22.15;;
13731;SDS011;6937;56.096;12.664;2023-02-15T01:28:03;28.50;;;21.45;;
13731;SDS011;6937;56.096;12.664;2023-02-15T01:30:29;28.00;;;21.52;;
13731;SDS011;6937;56.096;12.664;2023-02-15T01:32:54;31.15;;;22.45;;
13731;SDS011;6937;56.096;12.664;2023-02-15T01:35:20;32.88;;;22.45;;
13731;SDS011;6937;56.096;12.664;2023-02-15T01:37:45;28.33;;;21.08;;
13731;SDS011;6937;56.096;12.664;2023-02-15T01:40:15;30.30;;;22.63;;
13731;SDS011;6937;56.096;12.664;2023-02-15T01:42:42;32.13;;;21.97;;
13731;SDS011;6937;56.096;12.664;2023-02-15T01:45:19;30.15;;;22.60;;
13731;SDS011;6937;56.096;12.664;2023-02-15T01:47:51;29.98;;;21.88;;
13731;SDS011;6937;56.096;12.664;2023-02-15T01:50:31;30.52;;;21.48;;
13731;SDS011;6937;56.096;12.664;2023-02-15T01:55:50;30.08;;;21.23;;
13731;SDS011;6937;56.096;12.664;2023-02-15T01:58:22;32.08;;;21.95;;
13731;SDS011;6937;56.096;12.664;2023-02-15T02:00:50;33.25;;;23.65;;
13731;SDS011;6937;56.096;12.664;2023-02-15T02:03:16;33.33;;;22.73;;
13731;SDS011;6937;56.096;12.664;2023-02-15T02:05:43;28.48;;;21.85;;
13731;SDS011;6937;56.096;12.664;2023-02-15T02:08:08;28.75;;;21.70;;
13731;SDS011;6937;56.096;12.664;2023-02-15T02:10:35;32.92;;;22.20;;
13731;SDS011;6937;56.096;12.664;2023-02-15T02:13:02;31.77;;;22.30;;
13731;SDS011;6937;56.096;12.664;2023-02-15T02:21:09;35.13;;;23.80;;
13731;SDS011;6937;56.096;12.664;2023-02-15T02:23:49;34.17;;;22.65;;
13731;SDS011;6937;56.096;12.664;2023-02-15T02:32:25;37.88;;;24.35;;
13731;SDS011;6937;56.096;12.664;2023-02-15T02:35:00;32.67;;;22.02;;
13731;SDS011;6937;56.096;12.664;2023-02-15T02:37:49;37.75;;;22.85;;
13731;SDS011;6937;56.096;12.664;2023-02-15T02:41:06;36.67;;;23.60;;
13731;SDS011;6937;56.096;12.664;2023-02-15T02:43:37;32.63;;;21.27;;
13731;SDS011;6937;56.096;12.664;2023-02-15T02:46:17;36.90;;;23.77;;
13731;SDS011;6937;56.096;12.664;2023-02-15T02:48:47;40.75;;;24.30;;
13731;SDS011;6937;56.096;12.664;2023-02-15T02:51:14;38.88;;;24.60;;
13731;SDS011;6937;56.096;12.664;2023-02-15T02:53:45;37.10;;;25.83;;
13731;SDS011;6937;56.096;12.664;2023-02-15T02:56:44;41.92;;;26.40;;
13731;SDS011;6937;56.096;12.664;2023-02-15T02:59:06;42.90;;;25.95;;
13731;SDS011;6937;56.096;12.664;2023-02-15T03:01:39;40.08;;;25.08;;
13731;SDS011;6937;56.096;12.664;2023-02-15T03:04:10;38.38;;;25.15;;
13731;SDS011;6937;56.096;12.664;2023-02-15T03:06:41;39.95;;;24.95;;
13731;SDS011;6937;56.096;12.664;2023-02-15T03:09:15;37.83;;;23.65;;
13731;SDS011;6937;56.096;12.664;2023-02-15T03:11:48;38.90;;;25.27;;
13731;SDS011;6937;56.096;12.664;2023-02-15T03:14:15;39.78;;;26.27;;
13731;SDS011;6937;56.096;12.664;2023-02-15T03:16:42;46.90;;;28.40;;
13731;SDS011;6937;56.096;12.664;2023-02-15T03:19:13;44.25;;;29.15;;
13731;SDS011;6937;56.096;12.664;2023-02-15T03:21:45;41.03;;;27.05;;
13731;SDS011;6937;56.096;12.664;2023-02-15T03:24:23;45.17;;;27.77;;
13731;SDS011;6937;56.096;12.664;2023-02-15T03:26:52;45.35;;;29.13;;
13731;SDS011;6937;56.096;12.664;2023-02-15T03:29:20;41.97;;;27.13;;
13731;SDS011;6937;56.096;12.664;2023-02-15T03:31:50;49.78;;;28.80;;
13731;SDS011;6937;56.096;12.664;2023-02-15T03:34:21;50.90;;;30.35;;
13731;SDS011;6937;56.096;12.664;2023-02-15T03:41:59;51.00;;;30.52;;
13731;SDS011;6937;56.096;12.664;2023-02-15T03:44:35;50.35;;;31.23;;
13731;SDS011;6937;56.096;12.664;2023-02-15T03:47:11;58.33;;;32.53;;
13731;SDS011;6937;56.096;12.664;2023-02-15T03:49:47;52.90;;;31.52;;
13731;SDS011;6937;56.096;12.664;2023-02-15T03:52:17;50.90;;;30.90;;
13731;SDS011;6937;56.096;12.664;2023-02-15T03:54:44;59.00;;;32.15;;
13731;SDS011;6937;56.096;12.664;2023-02-15T03:57:17;62.30;;;33.28;;
13731;SDS011;6937;56.096;12.664;2023-02-15T04:00:12;58.67;;;33.90;;
13731;SDS011;6937;56.096;12.664;2023-02-15T04:05:37;52.53;;;31.10;;
13731;SDS011;6937;56.096;12.664;2023-02-15T04:08:03;49.80;;;30.27;;
13731;SDS011;6937;56.096;12.664;2023-02-15T04:10:29;51.20;;;29.25;;
13731;SDS011;6937;56.096;12.664;2023-02-15T04:13:13;44.97;;;28.17;;
13731;SDS011;6937;56.096;12.664;2023-02-15T04:15:38;50.22;;;32.17;;
13731;SDS011;6937;56.096;12.664;2023-02-15T04:18:22;53.88;;;31.60;;
13731;SDS011;6937;56.096;12.664;2023-02-15T04:21:06;50.67;;;30.40;;
13731;SDS011;6937;56.096;12.664;2023-02-15T04:23:50;62.90;;;32.78;;
13731;SDS011;6937;56.096;12.664;2023-02-15T04:26:34;53.53;;;33.33;;
13731;SDS011;6937;56.096;12.664;2023-02-15T04:28:59;52.28;;;33.20;;
13731;SDS011;6937;56.096;12.664;2023-02-15T04:31:24;45.13;;;30.80;;
13731;SDS011;6937;56.096;12.664;2023-02-15T04:33:50;47.33;;;29.73;;
13731;SDS011;6937;56.096;12.664;2023-02-15T04:36:15;56.30;;;34.65;;
13731;SDS011;6937;56.096;12.664;2023-02-15T04:38:40;46.72;;;31.17;;
13731;SDS011;6937;56.096;12.664;2023-02-15T04:41:06;51.38;;;31.05;;
13731;SDS011;6937;56.096;12.664;2023-02-15T04:43:31;51.95;;;31.92;;
13731;SDS011;6937;56.096;12.664;2023-02-15T04:45:56;51.15;;;32.33;;
13731;SDS011;6937;56.096;12.664;2023-02-15T04:48:23;42.95;;;29.77;;
13731;SDS011;6937;56.096;12.664;2023-02-15T04:50:49;48.15;;;30.92;;
13731;SDS011;6937;56.096;12.664;2023-02-15T04:53:14;51.50;;;30.13;;
13731;SDS011;6937;56.096;12.664;2023-02-15T04:55:41;47.85;;;31.23;;
13731;SDS011;6937;56.096;12.664;2023-02-15T04:58:06;45.00;;;30.48;;
13731;SDS011;6937;56.096;12.664;2023-02-15T05:00:32;46.40;;;30.42;;
13731;SDS011;6937;56.096;12.664;2023-02-15T05:02:57;47.58;;;30.75;;
13731;SDS011;6937;56.096;12.664;2023-02-15T05:05:22;55.17;;;34.65;;
13731;SDS011;6937;56.096;12.664;2023-02-15T05:07:48;48.08;;;30.55;;
13731;SDS011;6937;56.096;12.664;2023-02-15T05:10:13;45.05;;;30.67;;
13731;SDS011;6937;56.096;12.664;2023-02-15T05:12:39;49.80;;;31.48;;
13731;SDS011;6937;56.096;12.664;2023-02-15T05:15:04;45.88;;;31.92;;
13731;SDS011;6937;56.096;12.664;2023-02-15T05:17:29;53.90;;;34.35;;
13731;SDS011;6937;56.096;12.664;2023-02-15T05:19:55;49.08;;;33.05;;
13731;SDS011;6937;56.096;12.664;2023-02-15T05:22:20;52.58;;;33.00;;
13731;SDS011;6937;56.096;12.664;2023-02-15T05:24:46;63.47;;;38.33;;
13731;SDS011;6937;56.096;12.664;2023-02-15T05:27:29;57.35;;;34.67;;
13731;SDS011;6937;56.096;12.664;2023-02-15T05:30:24;54.72;;;35.05;;
13731;SDS011;6937;56.096;12.664;2023-02-15T05:32:49;55.65;;;36.88;;
13731;SDS011;6937;56.096;12.664;2023-02-15T05:35:15;50.00;;;34.63;;
13731;SDS011;6937;56.096;12.664;2023-02-15T05:37:41;54.38;;;34.60;;
13731;SDS011;6937;56.096;12.664;2023-02-15T05:40:07;56.00;;;37.13;;
13731;SDS011;6937;56.096;12.664;2023-02-15T05:42:33;60.40;;;37.72;;
13731;SDS011;6937;56.096;12.664;2023-02-15T05:44:59;53.33;;;34.80;;
13731;SDS011;6937;56.096;12.664;2023-02-15T05:47:24;54.65;;;33.97;;
13731;SDS011;6937;56.096;12.664;2023-02-15T05:49:50;56.25;;;34.03;;
13731;SDS011;6937;56.096;12.664;2023-02-15T05:52:15;52.78;;;34.63;;
13731;SDS011;6937;56.096;12.664;2023-02-15T05:54:41;49.22;;;34.08;;
13731;SDS011;6937;56.096;12.664;2023-02-15T05:57:06;58.35;;;37.38;;
13731;SDS011;6937;56.096;12.664;2023-02-15T05:59:31;53.40;;;35.17;;
13731;SDS011;6937;56.096;12.664;2023-02-15T06:01:57;58.80;;;38.17;;
13731;SDS011;6937;56.096;12.664;2023-02-15T06:04:22;49.22;;;34.13;;
13731;SDS011;6937;56.096;12.664;2023-02-15T06:06:48;55.88;;;36.65;;
13731;SDS011;6937;56.096;12.664;2023-02-15T06:09:13;52.60;;;35.45;;
13731;SDS011;6937;56.096;12.664;2023-02-15T06:11:39;50.55;;;34.10;;
13731;SDS011;6937;56.096;12.664;2023-02-15T06:14:04;51.13;;;34.65;;
13731;SDS011;6937;56.096;12.664;2023-02-15T06:16:30;49.38;;;33.50;;
13731;SDS011;6937;56.096;12.664;2023-02-15T06:18:55;47.55;;;32.05;;
13731;SDS011;6937;56.096;12.664;2023-02-15T06:21:21;51.83;;;33.75;;
13731;SDS011;6937;56.096;12.664;2023-02-15T06:23:47;47.58;;;31.83;;
13731;SDS011;6937;56.096;12.664;2023-02-15T06:26:12;46.95;;;32.63;;
13731;SDS011;6937;56.096;12.664;2023-02-15T06:28:38;50.70;;;32.22;;
13731;SDS011;6937;56.096;12.664;2023-02-15T06:31:03;60.58;;;35.85;;
13731;SDS011;6937;56.096;12.664;2023-02-15T06:33:29;53.35;;;32.75;;
13731;SDS011;6937;56.096;12.664;2023-02-15T06:35:55;57.28;;;36.78;;
13731;SDS011;6937;56.096;12.664;2023-02-15T06:38:21;51.22;;;33.58;;
13731;SDS011;6937;56.096;12.664;2023-02-15T06:40:47;55.20;;;34.35;;
13731;SDS011;6937;56.096;12.664;2023-02-15T06:43:12;53.55;;;32.95;;
13731;SDS011;6937;56.096;12.664;2023-02-15T06:45:37;49.70;;;32.53;;
13731;SDS011;6937;56.096;12.664;2023-02-15T06:48:03;55.90;;;33.63;;
13731;SDS011;6937;56.096;12.664;2023-02-15T06:50:31;50.28;;;33.28;;
13731;SDS011;6937;56.096;12.664;2023-02-15T06:52:57;53.25;;;33.35;;
13731;SDS011;6937;56.096;12.664;2023-02-15T06:55:23;48.80;;;32.78;;
13731;SDS011;6937;56.096;12.664;2023-02-15T06:57:49;46.60;;;31.85;;
13731;SDS011;6937;56.096;12.664;2023-02-15T07:00:15;48.53;;;33.35;;
13731;SDS011;6937;56.096;12.664;2023-02-15T07:02:40;49.88;;;33.28;;
13731;SDS011;6937;56.096;12.664;2023-02-15T07:05:06;51.20;;;35.00;;
13731;SDS011;6937;56.096;12.664;2023-02-15T07:07:31;58.63;;;37.85;;
13731;SDS011;6937;56.096;12.664;2023-02-15T07:09:57;52.20;;;33.15;;
13731;SDS011;6937;56.096;12.664;2023-02-15T07:12:22;54.65;;;34.10;;
13731;SDS011;6937;56.096;12.664;2023-02-15T07:15:06;54.15;;;35.72;;
13731;SDS011;6937;56.096;12.664;2023-02-15T07:17:34;60.78;;;35.78;;
13731;SDS011;6937;56.096;12.664;2023-02-15T07:20:01;57.97;;;36.42;;
13731;SDS011;6937;56.096;12.664;2023-02-15T07:22:28;60.25;;;38.85;;
13731;SDS011;6937;56.096;12.664;2023-02-15T07:24:53;55.03;;;34.75;;
13731;SDS011;6937;56.096;12.664;2023-02-15T07:27:20;60.00;;;38.65;;
13731;SDS011;6937;56.096;12.664;2023-02-15T07:29:46;63.55;;;37.55;;
13731;SDS011;6937;56.096;12.664;2023-02-15T07:32:11;70.93;;;39.42;;
13731;SDS011;6937;56.096;12.664;2023-02-15T07:34:37;74.85;;;40.88;;
13731;SDS011;6937;56.096;12.664;2023-02-15T07:37:02;88.88;;;42.83;;
13731;SDS011;6937;56.096;12.664;2023-02-15T07:39:27;90.05;;;43.35;;
13731;SDS011;6937;56.096;12.664;2023-02-15T07:41:53;102.18;;;46.25;;
13731;SDS011;6937;56.096;12.664;2023-02-15T07:44:18;91.43;;;45.45;;
13731;SDS011;6937;56.096;12.664;2023-02-15T07:46:44;99.55;;;46.00;;
13731;SDS011;6937;56.096;12.664;2023-02-15T07:49:09;84.38;;;44.10;;
13731;SDS011;6937;56.096;12.664;2023-02-15T07:51:34;94.80;;;45.45;;
13731;SDS011;6937;56.096;12.664;2023-02-15T07:54:00;105.88;;;46.92;;
13731;SDS011;6937;56.096;12.664;2023-02-15T07:56:25;109.22;;;47.42;;
13731;SDS011;6937;56.096;12.664;2023-02-15T07:58:50;106.30;;;47.58;;
13731;SDS011;6937;56.096;12.664;2023-02-15T08:01:17;92.10;;;43.92;;
13731;SDS011;6937;56.096;12.664;2023-02-15T08:03:47;105.22;;;44.33;;
13731;SDS011;6937;56.096;12.664;2023-02-15T08:06:13;112.18;;;49.63;;
13731;SDS011;6937;56.096;12.664;2023-02-15T08:08:39;98.40;;;47.53;;
13731;SDS011;6937;56.096;12.664;2023-02-15T08:11:13;108.57;;;49.17;;
13731;SDS011;6937;56.096;12.664;2023-02-15T08:14:10;126.07;;;48.03;;
13731;SDS011;6937;56.096;12.664;2023-02-15T08:21:46;130.27;;;50.65;;
13731;SDS011;6937;56.096;12.664;2023-02-15T08:24:14;131.02;;;51.97;;
13731;SDS011;6937;56.096;12.664;2023-02-15T08:26:41;129.82;;;52.60;;
13731;SDS011;6937;56.096;12.664;2023-02-15T08:29:08;127.90;;;54.75;;
13731;SDS011;6937;56.096;12.664;2023-02-15T08:31:34;137.43;;;55.33;;
13731;SDS011;6937;56.096;12.664;2023-02-15T08:34:00;129.05;;;52.55;;
13731;SDS011;6937;56.096;12.664;2023-02-15T08:36:27;126.80;;;53.00;;
13731;SDS011;6937;56.096;12.664;2023-02-15T08:38:54;130.65;;;50.65;;
13731;SDS011;6937;56.096;12.664;2023-02-15T08:41:25;140.90;;;55.47;;
13731;SDS011;6937;56.096;12.664;2023-02-15T08:43:56;136.97;;;55.10;;
13731;SDS011;6937;56.096;12.664;2023-02-15T08:46:24;132.70;;;54.55;;
13731;SDS011;6937;56.096;12.664;2023-02-15T08:48:51;148.50;;;55.35;;
13731;SDS011;6937;56.096;12.664;2023-02-15T08:51:24;171.60;;;59.33;;
13731;SDS011;6937;56.096;12.664;2023-02-15T08:53:52;162.98;;;58.10;;
13731;SDS011;6937;56.096;12.664;2023-02-15T08:56:29;169.52;;;59.72;;
13731;SDS011;6937;56.096;12.664;2023-02-15T08:58:57;147.60;;;58.08;;
13731;SDS011;6937;56.096;12.664;2023-02-15T09:01:27;163.23;;;59.67;;
13731;SDS011;6937;56.096;12.664;2023-02-15T09:04:00;159.23;;;56.65;;
13731;SDS011;6937;56.096;12.664;2023-02-15T09:06:27;149.43;;;55.80;;
13731;SDS011;6937;56.096;12.664;2023-02-15T09:08:53;165.10;;;58.78;;
13731;SDS011;6937;56.096;12.664;2023-02-15T09:11:20;157.68;;;59.75;;
13731;SDS011;6937;56.096;12.664;2023-02-15T09:13:49;141.57;;;55.75;;
13731;SDS011;6937;56.096;12.664;2023-02-15T09:16:16;175.77;;;61.42;;
13731;SDS011;6937;56.096;12.664;2023-02-15T09:18:42;173.20;;;60.50;;
13731;SDS011;6937;56.096;12.664;2023-02-15T09:21:09;179.23;;;63.85;;
13731;SDS011;6937;56.096;12.664;2023-02-15T09:23:38;159.63;;;59.93;;
13731;SDS011;6937;56.096;12.664;2023-02-15T09:26:08;158.27;;;58.50;;
13731;SDS011;6937;56.096;12.664;2023-02-15T09:28:36;164.60;;;61.78;;
13731;SDS011;6937;56.096;12.664;2023-02-15T09:31:12;160.05;;;60.08;;
13731;SDS011;6937;56.096;12.664;2023-02-15T09:33:42;164.63;;;59.22;;
13731;SDS011;6937;56.096;12.664;2023-02-15T09:38:44;161.85;;;60.60;;
13731;SDS011;6937;56.096;12.664;2023-02-15T09:46:48;193.20;;;59.97;;
13731;SDS011;6937;56.096;12.664;2023-02-15T10:01:08;175.60;;;62.63;;
13731;SDS011;6937;56.096;12.664;2023-02-15T10:12:31;122.30;;;57.17;;
13731;SDS011;6937;56.096;12.664;2023-02-15T10:21:17;107.28;;;51.47;;
13731;SDS011;6937;56.096;12.664;2023-02-15T10:23:52;103.45;;;52.72;;
13731;SDS011;6937;56.096;12.664;2023-02-15T10:26:21;95.25;;;49.80;;
13731;SDS011;6937;56.096;12.664;2023-02-15T10:29:08;94.20;;;49.83;;
13731;SDS011;6937;56.096;12.664;2023-02-15T10:31:50;103.90;;;51.42;;
13731;SDS011;6937;56.096;12.664;2023-02-15T10:34:37;96.00;;;51.95;;
13731;SDS011;6937;56.096;12.664;2023-02-15T10:37:49;92.45;;;50.63;;
13731;SDS011;6937;56.096;12.664;2023-02-15T10:40:18;90.10;;;50.22;;
13731;SDS011;6937;56.096;12.664;2023-02-15T10:45:21;84.43;;;47.90;;
13731;SDS011;6937;56.096;12.664;2023-02-15T10:48:10;83.95;;;48.30;;
13731;SDS011;6937;56.096;12.664;2023-02-15T10:50:49;80.35;;;47.47;;
13731;SDS011;6937;56.096;12.664;2023-02-15T10:59:00;83.70;;;48.10;;
13731;SDS011;6937;56.096;12.664;2023-02-15T11:01:39;80.22;;;48.08;;
13731;SDS011;6937;56.096;12.664;2023-02-15T11:06:53;93.13;;;49.30;;
13731;SDS011;6937;56.096;12.664;2023-02-15T11:09:23;83.38;;;47.35;;
13731;SDS011;6937;56.096;12.664;2023-02-15T11:11:55;95.72;;;49.67;;
13731;SDS011;6937;56.096;12.664;2023-02-15T11:17:05;76.80;;;46.17;;
13731;SDS011;6937;56.096;12.664;2023-02-15T11:19:41;101.35;;;50.20;;
13731;SDS011;6937;56.096;12.664;2023-02-15T11:22:20;96.45;;;49.92;;
13731;SDS011;6937;56.096;12.664;2023-02-15T11:24:45;97.07;;;51.35;;
13731;SDS011;6937;56.096;12.664;2023-02-15T11:29:38;114.32;;;53.92;;
13731;SDS011;6937;56.096;12.664;2023-02-15T11:32:18;100.57;;;52.35;;
13731;SDS011;6937;56.096;12.664;2023-02-15T11:34:53;88.38;;;50.08;;
13731;SDS011;6937;56.096;12.664;2023-02-15T11:37:20;100.40;;;52.15;;
13731;SDS011;6937;56.096;12.664;2023-02-15T11:39:49;91.90;;;48.33;;
13731;SDS011;6937;56.096;12.664;2023-02-15T11:42:20;87.68;;;47.00;;
13731;SDS011;6937;56.096;12.664;2023-02-15T11:47:19;76.20;;;47.25;;
13731;SDS011;6937;56.096;12.664;2023-02-15T11:49:44;77.55;;;47.22;;
13731;SDS011;6937;56.096;12.664;2023-02-15T11:52:12;76.72;;;45.65;;
13731;SDS011;6937;56.096;12.664;2023-02-15T11:54:40;75.00;;;45.72;;
13731;SDS011;6937;56.096;12.664;2023-02-15T11:59:42;78.20;;;46.50;;
13731;SDS011;6937;56.096;12.664;2023-02-15T12:02:19;88.43;;;48.85;;
13731;SDS011;6937;56.096;12.664;2023-02-15T12:04:54;76.43;;;45.58;;
13731;SDS011;6937;56.096;12.664;2023-02-15T12:10:29;90.28;;;47.95;;
13731;SDS011;6937;56.096;12.664;2023-02-15T12:13:08;88.25;;;49.70;;
13731;SDS011;6937;56.096;12.664;2023-02-15T12:15:42;90.10;;;49.80;;
13731;SDS011;6937;56.096;12.664;2023-02-15T12:18:24;91.18;;;49.85;;
13731;SDS011;6937;56.096;12.664;2023-02-15T12:21:12;100.82;;;49.63;;
13731;SDS011;6937;56.096;12.664;2023-02-15T12:23:52;105.65;;;49.75;;
13731;SDS011;6937;56.096;12.664;2023-02-15T12:26:28;111.85;;;52.17;;
13731;SDS011;6937;56.096;12.664;2023-02-15T12:29:07;116.15;;;52.80;;
13731;SDS011;6937;56.096;12.664;2023-02-15T12:31:44;111.43;;;51.47;;
13731;SDS011;6937;56.096;12.664;2023-02-15T12:34:25;111.60;;;54.97;;
13731;SDS011;6937;56.096;12.664;2023-02-15T12:36:55;117.20;;;52.13;;
13731;SDS011;6937;56.096;12.664;2023-02-15T12:39:25;116.38;;;52.95;;
13731;SDS011;6937;56.096;12.664;2023-02-15T12:44:22;105.45;;;53.72;;
13731;SDS011;6937;56.096;12.664;2023-02-15T12:49:24;113.95;;;49.50;;
13731;SDS011;6937;56.096;12.664;2023-02-15T12:51:53;98.22;;;49.72;;
13731;SDS011;6937;56.096;12.664;2023-02-15T12:56:47;96.53;;;48.53;;
13731;SDS011;6937;56.096;12.664;2023-02-15T12:59:12;100.55;;;50.63;;
13731;SDS011;6937;56.096;12.664;2023-02-15T13:01:40;94.55;;;46.70;;
13731;SDS011;6937;56.096;12.664;2023-02-15T13:04:14;94.30;;;50.03;;
13731;SDS011;6937;56.096;12.664;2023-02-15T13:06:48;100.30;;;51.50;;
13731;SDS011;6937;56.096;12.664;2023-02-15T13:09:18;94.78;;;51.50;;
13731;SDS011;6937;56.096;12.664;2023-02-15T13:11:45;101.50;;;51.25;;
13731;SDS011;6937;56.096;12.664;2023-02-15T13:14:18;95.45;;;51.47;;
13731;SDS011;6937;56.096;12.664;2023-02-15T13:16:47;99.18;;;50.58;;
13731;SDS011;6937;56.096;12.664;2023-02-15T13:21:53;95.60;;;49.47;;
13731;SDS011;6937;56.096;12.664;2023-02-15T13:24:24;98.03;;;52.13;;
13731;SDS011;6937;56.096;12.664;2023-02-15T13:26:54;97.38;;;50.20;;
13731;SDS011;6937;56.096;12.664;2023-02-15T13:29:23;95.03;;;51.35;;
13731;SDS011;6937;56.096;12.664;2023-02-15T13:31:51;96.18;;;51.35;;
13731;SDS011;6937;56.096;12.664;2023-02-15T13:34:37;104.00;;;50.22;;
13731;SDS011;6937;56.096;12.664;2023-02-15T13:40:08;96.00;;;50.60;;
13731;SDS011;6937;56.096;12.664;2023-02-15T13:42:54;104.72;;;52.58;;
13731;SDS011;6937;56.096;12.664;2023-02-15T13:51:07;114.40;;;53.40;;
13731;SDS011;6937;56.096;12.664;2023-02-15T13:54:07;109.03;;;53.22;;
13731;SDS011;6937;56.096;12.664;2023-02-15T14:08:27;145.50;;;58.03;;
13731;SDS011;6937;56.096;12.664;2023-02-15T14:17:25;128.98;;;50.40;;
13731;SDS011;6937;56.096;12.664;2023-02-15T14:20:14;127.50;;;49.75;;
13731;SDS011;6937;56.096;12.664;2023-02-15T14:26:10;144.35;;;49.88;;
13731;SDS011;6937;56.096;12.664;2023-02-15T14:28:49;181.43;;;57.92;;
13731;SDS011;6937;56.096;12.664;2023-02-15T14:31:22;99.60;;;46.88;;
13731;SDS011;6937;56.096;12.664;2023-02-15T14:33:56;135.88;;;51.25;;
13731;SDS011;6937;56.096;12.664;2023-02-15T14:36:22;169.88;;;58.03;;
13731;SDS011;6937;56.096;12.664;2023-02-15T14:44:38;143.77;;;48.30;;
13731;SDS011;6937;56.096;12.664;2023-02-15T14:47:12;161.43;;;47.90;;
13731;SDS011;6937;56.096;12.664;2023-02-15T14:49:43;263.35;;;55.47;;
13731;SDS011;6937;56.096;12.664;2023-02-15T14:52:09;166.80;;;51.83;;
13731;SDS011;6937;56.096;12.664;2023-02-15T14:59:27;242.57;;;58.08;;
13731;SDS011;6937;56.096;12.664;2023-02-15T15:04:33;322.08;;;61.08;;
13731;SDS011;6937;56.096;12.664;2023-02-15T15:10:00;276.08;;;60.65;;
13731;SDS011;6937;56.096;12.664;2023-02-15T15:12:40;249.90;;;54.95;;
13731;SDS011;6937;56.096;12.664;2023-02-15T15:15:07;170.32;;;48.13;;
13731;SDS011;6937;56.096;12.664;2023-02-15T15:22:32;253.25;;;57.30;;
13731;SDS011;6937;56.096;12.664;2023-02-15T15:24:59;192.55;;;51.08;;
13731;SDS011;6937;56.096;12.664;2023-02-15T15:27:41;166.38;;;54.03;;
13731;SDS011;6937;56.096;12.664;2023-02-15T15:41:48;296.80;;;52.65;;
13731;SDS011;6937;56.096;12.664;2023-02-15T15:50:15;277.77;;;52.25;;
13731;SDS011;6937;56.096;12.664;2023-02-15T15:52:47;352.67;;;62.28;;
13731;SDS011;6937;56.096;12.664;2023-02-15T15:55:20;184.75;;;49.13;;
13731;SDS011;6937;56.096;12.664;2023-02-15T15:57:49;379.55;;;60.00;;
13731;SDS011;6937;56.096;12.664;2023-02-15T16:03:16;289.33;;;53.10;;
13731;SDS011;6937;56.096;12.664;2023-02-15T16:05:49;367.88;;;62.60;;
13731;SDS011;6937;56.096;12.664;2023-02-15T16:08:26;249.25;;;57.25;;
13731;SDS011;6937;56.096;12.664;2023-02-15T16:10:53;300.08;;;57.60;;
13731;SDS011;6937;56.096;12.664;2023-02-15T16:13:18;314.35;;;58.63;;
13731;SDS011;6937;56.096;12.664;2023-02-15T16:15:44;285.58;;;59.75;;
13731;SDS011;6937;56.096;12.664;2023-02-15T16:18:19;216.18;;;55.38;;
13731;SDS011;6937;56.096;12.664;2023-02-15T16:20:48;360.02;;;65.70;;
13731;SDS011;6937;56.096;12.664;2023-02-15T16:28:39;305.17;;;59.85;;
13731;SDS011;6937;56.096;12.664;2023-02-15T16:31:12;377.73;;;62.33;;
13731;SDS011;6937;56.096;12.664;2023-02-15T16:33:41;483.85;;;69.07;;
13731;SDS011;6937;56.096;12.664;2023-02-15T16:36:11;477.25;;;67.13;;
13731;SDS011;6937;56.096;12.664;2023-02-15T16:41:16;461.98;;;67.43;;
13731;SDS011;6937;56.096;12.664;2023-02-15T16:43:47;199.77;;;52.13;;
13731;SDS011;6937;56.096;12.664;2023-02-15T16:46:24;264.48;;;53.28;;
13731;SDS011;6937;56.096;12.664;2023-02-15T16:48:52;285.45;;;56.30;;
13731;SDS011;6937;56.096;12.664;2023-02-15T16:51:21;454.30;;;64.07;;
13731;SDS011;6937;56.096;12.664;2023-02-15T16:53:51;674.50;;;77.32;;
13731;SDS011;6937;56.096;12.664;2023-02-15T16:56:18;406.77;;;61.42;;
13731;SDS011;6937;56.096;12.664;2023-02-15T16:58:53;654.83;;;77.80;;
13731;SDS011;6937;56.096;12.664;2023-02-15T17:01:21;216.27;;;49.90;;
13731;SDS011;6937;56.096;12.664;2023-02-15T17:03:49;544.50;;;70.32;;
13731;SDS011;6937;56.096;12.664;2023-02-15T17:06:24;628.28;;;73.53;;
13731;SDS011;6937;56.096;12.664;2023-02-15T17:08:51;462.33;;;67.97;;
13731;SDS011;6937;56.096;12.664;2023-02-15T17:11:18;601.40;;;80.22;;
13731;SDS011;6937;56.096;12.664;2023-02-15T17:16:33;818.30;;;78.68;;
13731;SDS011;6937;56.096;12.664;2023-02-15T17:19:01;454.95;;;65.22;;
13731;SDS011;6937;56.096;12.664;2023-02-15T17:21:36;447.38;;;64.40;;
13731;SDS011;6937;56.096;12.664;2023-02-15T17:24:05;699.08;;;77.70;;
13731;SDS011;6937;56.096;12.664;2023-02-15T17:26:35;410.05;;;63.67;;
13731;SDS011;6937;56.096;12.664;2023-02-15T17:29:23;713.35;;;85.38;;
13731;SDS011;6937;56.096;12.664;2023-02-15T17:31:51;518.70;;;71.23;;